Time;durP1;ratioP1;P1;durP2;ratioP2;P2;SDS_P1;SDS_P2;PMS_P1;PMS_P2;Temp;Humidity;BMP_temperature;BMP_pressure;BME280_temperature;BME280_humidity;BME280_pressure;Samples;Min_cycle;Max_cycle;Signal;HPM_P1;HPM_P2
2023/09/30 00:01:21;;;;;;;12.07;6.97;;;;;;;;;;5051345;28;20176;-78
2023/09/30 00:03:48;;;;;;;13.30;7.10;;;;;;;;;;5037808;28;20187;-78
2023/09/30 00:06:14;;;;;;;14.27;6.97;;;;;;;;;;5040324;28;20184;-78
2023/09/30 00:08:41;;;;;;;15.50;6.73;;;;;;;;;;5039020;28;20266;-78
2023/09/30 00:11:07;;;;;;;12.43;6.90;;;;;;;;;;5038421;28;20220;-78
2023/09/30 00:13:34;;;;;;;13.37;7.70;;;;;;;;;;5056429;28;20184;-78
2023/09/30 00:16:00;;;;;;;13.50;7.97;;;;;;;;;;5038643;28;20188;-78
2023/09/30 00:18:27;;;;;;;14.10;7.23;;;;;;;;;;5055177;28;20270;-77
2023/09/30 00:20:53;;;;;;;15.77;7.40;;;;;;;;;;5038649;28;20176;-76
2023/09/30 00:23:21;;;;;;;16.43;7.30;;;;;;;;;;5047665;28;20266;-76
2023/09/30 00:25:48;;;;;;;17.30;7.07;;;;;;;;;;5038007;28;20249;-76
2023/09/30 00:28:14;;;;;;;16.63;7.37;;;;;;;;;;5021975;28;20304;-76
2023/09/30 00:30:40;;;;;;;19.73;7.50;;;;;;;;;;5037985;28;20223;-76
2023/09/30 00:33:06;;;;;;;12.30;7.20;;;;;;;;;;5022132;28;20183;-77
2023/09/30 00:35:33;;;;;;;18.90;7.47;;;;;;;;;;5037856;28;20188;-78
2023/09/30 00:37:59;;;;;;;14.33;7.10;;;;;;;;;;5055682;28;20188;-77
2023/09/30 00:40:25;;;;;;;16.77;7.10;;;;;;;;;;5038162;28;20183;-77
2023/09/30 00:42:51;;;;;;;15.60;6.80;;;;;;;;;;5043123;23;20242;-78
2023/09/30 00:45:17;;;;;;;16.37;6.93;;;;;;;;;;5053839;28;20184;-78
2023/09/30 00:47:43;;;;;;;13.10;6.87;;;;;;;;;;5021157;28;20183;-78
2023/09/30 00:50:12;;;;;;;12.13;6.80;;;;;;;;;;5053990;28;20274;-77
2023/09/30 00:52:38;;;;;;;12.90;7.13;;;;;;;;;;5036463;28;20218;-77
2023/09/30 00:55:05;;;;;;;12.43;6.43;;;;;;;;;;5054155;28;20179;-78
2023/09/30 00:57:32;;;;;;;14.40;6.53;;;;;;;;;;5036281;28;20262;-77
2023/09/30 00:59:58;;;;;;;17.70;7.07;;;;;;;;;;5037078;28;20188;-78
2023/09/30 01:02:24;;;;;;;19.77;7.00;;;;;;;;;;5020611;28;20188;-77
2023/09/30 01:04:50;;;;;;;14.40;6.87;;;;;;;;;;5036870;28;20286;-78
2023/09/30 01:07:17;;;;;;;17.40;7.70;;;;;;;;;;5036608;28;20207;-77
2023/09/30 01:09:43;;;;;;;14.17;6.90;;;;;;;;;;5054740;28;20176;-77
2023/09/30 01:12:09;;;;;;;12.63;6.30;;;;;;;;;;5020867;28;20216;-77
2023/09/30 01:14:40;;;;;;;12.57;6.63;;;;;;;;;;5043181;28;20186;-77
2023/09/30 01:17:13;;;;;;;16.40;7.07;;;;;;;;;;5042450;28;20248;-77
2023/09/30 01:19:39;;;;;;;16.70;6.87;;;;;;;;;;5041916;28;20202;-77
2023/09/30 01:22:09;;;;;;;14.43;7.20;;;;;;;;;;5055720;28;20193;-78
2023/09/30 01:24:40;;;;;;;12.87;7.13;;;;;;;;;;5061467;28;20300;-77
2023/09/30 01:27:06;;;;;;;13.57;7.30;;;;;;;;;;5051331;28;20216;-77
2023/09/30 01:29:32;;;;;;;14.17;7.00;;;;;;;;;;5054946;28;20231;-77
2023/09/30 01:31:58;;;;;;;15.73;6.30;;;;;;;;;;5036887;28;20303;-77
2023/09/30 01:34:24;;;;;;;14.93;6.67;;;;;;;;;;5010615;28;20279;-77
2023/09/30 01:36:50;;;;;;;10.63;6.73;;;;;;;;;;5013979;28;20280;-78
2023/09/30 01:39:16;;;;;;;17.27;6.90;;;;;;;;;;5020484;28;20184;-78
2023/09/30 01:41:43;;;;;;;12.37;6.03;;;;;;;;;;5020503;28;20232;-77
2023/09/30 01:44:09;;;;;;;14.77;7.00;;;;;;;;;;5020189;28;20184;-77
2023/09/30 01:46:36;;;;;;;12.73;6.20;;;;;;;;;;5036833;28;20213;-77
2023/09/30 01:49:03;;;;;;;13.50;6.40;;;;;;;;;;5054722;28;20310;-77
2023/09/30 01:51:29;;;;;;;14.07;6.53;;;;;;;;;;5017226;28;20215;-78
2023/09/30 01:53:56;;;;;;;15.17;6.80;;;;;;;;;;5036644;28;20183;-78
2023/09/30 01:56:22;;;;;;;10.13;5.87;;;;;;;;;;5019327;28;20184;-77
2023/09/30 01:58:48;;;;;;;16.03;6.83;;;;;;;;;;5019950;28;20176;-77
2023/09/30 02:01:15;;;;;;;16.10;6.97;;;;;;;;;;5036365;28;20187;-77
2023/09/30 02:03:41;;;;;;;15.07;7.40;;;;;;;;;;5037490;28;20262;-77
2023/09/30 02:06:07;;;;;;;15.80;7.60;;;;;;;;;;5020150;28;20242;-78
2023/09/30 02:08:36;;;;;;;13.27;6.60;;;;;;;;;;5038327;28;20192;-77
2023/09/30 02:11:02;;;;;;;14.23;6.90;;;;;;;;;;5036713;28;20208;-76
2023/09/30 02:13:28;;;;;;;14.97;7.17;;;;;;;;;;5036605;28;20237;-75
2023/09/30 02:15:55;;;;;;;13.90;6.90;;;;;;;;;;5019959;28;20176;-76
2023/09/30 02:18:23;;;;;;;15.43;7.10;;;;;;;;;;5026352;28;20221;-76
2023/09/30 02:20:50;;;;;;;11.63;6.83;;;;;;;;;;5044210;28;20187;-76
2023/09/30 02:23:17;;;;;;;17.47;6.90;;;;;;;;;;5036171;28;20183;-76
2023/09/30 02:25:43;;;;;;;14.97;6.93;;;;;;;;;;5020193;28;20240;-76
2023/09/30 02:28:09;;;;;;;14.93;7.13;;;;;;;;;;5036260;28;20180;-76
2023/09/30 02:30:35;;;;;;;12.20;6.23;;;;;;;;;;5054197;28;20263;-76
2023/09/30 02:33:02;;;;;;;13.03;6.77;;;;;;;;;;5053228;28;20269;-76
2023/09/30 02:35:28;;;;;;;12.97;6.67;;;;;;;;;;5020245;28;20191;-76
2023/09/30 02:37:55;;;;;;;11.20;6.10;;;;;;;;;;5032176;28;20191;-76
2023/09/30 02:40:24;;;;;;;10.40;6.30;;;;;;;;;;5053401;28;20214;-76
2023/09/30 02:42:51;;;;;;;11.37;6.50;;;;;;;;;;5031494;28;20239;-76
2023/09/30 02:45:17;;;;;;;17.60;6.93;;;;;;;;;;5054557;28;20186;-76
2023/09/30 02:47:43;;;;;;;11.87;6.13;;;;;;;;;;5053779;28;20189;-76
2023/09/30 02:50:13;;;;;;;12.00;6.80;;;;;;;;;;5036810;28;20191;-76
2023/09/30 02:52:42;;;;;;;14.37;6.60;;;;;;;;;;5035931;28;20184;-76
2023/09/30 02:55:09;;;;;;;14.03;7.53;;;;;;;;;;5036177;28;20196;-76
2023/09/30 02:57:35;;;;;;;14.47;7.27;;;;;;;;;;5036079;28;20186;-76
2023/09/30 03:00:20;;;;;;;12.97;6.97;;;;;;;;;;5035820;28;20270;-75
2023/09/30 03:02:46;;;;;;;11.37;6.57;;;;;;;;;;5058225;28;20184;-78
2023/09/30 03:05:13;;;;;;;14.90;7.00;;;;;;;;;;5021029;28;20292;-78
2023/09/30 03:07:41;;;;;;;11.37;6.67;;;;;;;;;;5029705;28;20184;-78
2023/09/30 03:10:08;;;;;;;12.57;6.97;;;;;;;;;;5019792;28;20188;-78
2023/09/30 03:12:34;;;;;;;13.27;6.87;;;;;;;;;;5019689;28;20302;-78
2023/09/30 03:15:04;;;;;;;15.43;6.53;;;;;;;;;;5035684;28;20212;-78
2023/09/30 03:17:33;;;;;;;11.87;6.90;;;;;;;;;;5019582;28;20195;-76
2023/09/30 03:19:59;;;;;;;9.40;6.73;;;;;;;;;;5036028;28;20180;-76
2023/09/30 03:22:27;;;;;;;13.27;6.90;;;;;;;;;;5053691;28;20172;-76
2023/09/30 03:24:54;;;;;;;12.33;7.10;;;;;;;;;;5035719;28;20246;-76
2023/09/30 03:27:20;;;;;;;10.37;6.53;;;;;;;;;;5019790;28;20207;-76
2023/09/30 03:29:46;;;;;;;11.53;6.83;;;;;;;;;;5036463;28;20176;-76
2023/09/30 03:32:12;;;;;;;11.83;7.30;;;;;;;;;;5038572;28;20216;-76
2023/09/30 03:34:44;;;;;;;13.10;7.17;;;;;;;;;;5057602;28;20235;-77
2023/09/30 03:37:10;;;;;;;13.17;6.83;;;;;;;;;;5027211;28;20203;-77
2023/09/30 03:39:36;;;;;;;10.93;7.03;;;;;;;;;;5057167;28;20180;-77
2023/09/30 03:42:03;;;;;;;12.33;6.83;;;;;;;;;;5055813;28;20231;-77
2023/09/30 03:44:29;;;;;;;12.63;7.57;;;;;;;;;;5039397;28;20188;-77
2023/09/30 03:46:56;;;;;;;12.93;7.50;;;;;;;;;;5039549;28;20186;-77
2023/09/30 03:49:22;;;;;;;12.10;7.70;;;;;;;;;;5056746;28;20176;-77
2023/09/30 03:51:50;;;;;;;14.67;7.97;;;;;;;;;;5023115;28;20212;-76
2023/09/30 03:54:17;;;;;;;18.27;8.00;;;;;;;;;;5010511;28;20188;-76
2023/09/30 03:56:43;;;;;;;12.20;6.97;;;;;;;;;;5003647;28;20181;-76
2023/09/30 03:59:09;;;;;;;15.50;7.73;;;;;;;;;;5003677;28;20187;-76
2023/09/30 04:01:39;;;;;;;10.23;6.90;;;;;;;;;;5022825;28;20275;-76
2023/09/30 04:04:07;;;;;;;12.30;7.40;;;;;;;;;;5038204;28;20187;-77
2023/09/30 04:06:33;;;;;;;14.13;7.60;;;;;;;;;;5038844;28;20188;-77
2023/09/30 04:08:59;;;;;;;15.20;7.97;;;;;;;;;;5035551;28;20266;-76
2023/09/30 04:11:25;;;;;;;14.17;7.73;;;;;;;;;;5038664;28;20315;-75
2023/09/30 04:13:51;;;;;;;13.23;8.17;;;;;;;;;;5022092;28;20180;-76
2023/09/30 04:16:19;;;;;;;12.23;7.70;;;;;;;;;;5039112;28;20184;-76
2023/09/30 04:18:46;;;;;;;13.43;8.17;;;;;;;;;;5006755;28;20211;-76
2023/09/30 04:21:12;;;;;;;14.70;8.33;;;;;;;;;;5068258;28;20187;-76
2023/09/30 04:23:38;;;;;;;14.17;7.97;;;;;;;;;;5038527;28;20252;-76
2023/09/30 04:26:05;;;;;;;16.10;8.70;;;;;;;;;;5039127;28;20192;-77
2023/09/30 04:28:31;;;;;;;15.00;8.30;;;;;;;;;;5042439;28;20206;-77
2023/09/30 04:30:58;;;;;;;13.63;8.37;;;;;;;;;;5046491;28;20212;-77
2023/09/30 04:33:24;;;;;;;16.30;8.67;;;;;;;;;;5038469;28;20180;-77
2023/09/30 04:35:50;;;;;;;14.93;8.33;;;;;;;;;;5026655;28;20199;-77
2023/09/30 04:38:17;;;;;;;15.60;8.90;;;;;;;;;;5045953;28;20222;-77
2023/09/30 04:40:44;;;;;;;13.60;9.50;;;;;;;;;;5034855;28;20279;-77
2023/09/30 04:43:10;;;;;;;15.77;9.73;;;;;;;;;;5027899;28;20250;-77
2023/09/30 04:45:36;;;;;;;19.00;10.07;;;;;;;;;;5021811;28;20188;-77
2023/09/30 04:48:03;;;;;;;15.70;9.60;;;;;;;;;;5038085;28;20184;-77
2023/09/30 04:50:30;;;;;;;14.73;9.27;;;;;;;;;;5038231;28;20230;-77
2023/09/30 04:52:56;;;;;;;16.13;9.80;;;;;;;;;;5038138;28;20180;-77
2023/09/30 04:55:23;;;;;;;15.50;9.90;;;;;;;;;;5055070;28;20168;-77
2023/09/30 04:57:50;;;;;;;15.50;9.80;;;;;;;;;;5038580;28;20242;-77
2023/09/30 05:00:21;;;;;;;15.43;10.57;;;;;;;;;;5055971;28;20275;-77
2023/09/30 05:02:48;;;;;;;17.53;9.93;;;;;;;;;;5038237;28;20176;-77
2023/09/30 05:05:14;;;;;;;13.70;10.30;;;;;;;;;;5021841;28;20184;-77
2023/09/30 05:07:41;;;;;;;16.50;10.93;;;;;;;;;;5021836;28;20179;-77
2023/09/30 05:10:11;;;;;;;16.87;10.30;;;;;;;;;;5038234;28;20204;-77
2023/09/30 05:12:37;;;;;;;14.27;9.17;;;;;;;;;;5021831;28;20183;-77
2023/09/30 05:15:06;;;;;;;15.33;10.37;;;;;;;;;;5037906;28;20168;-76
2023/09/30 05:17:32;;;;;;;16.00;9.43;;;;;;;;;;5037599;28;20230;-76
2023/09/30 05:19:58;;;;;;;13.97;9.40;;;;;;;;;;5021245;28;20179;-76
2023/09/30 05:22:24;;;;;;;15.40;9.57;;;;;;;;;;5037948;28;20188;-76
2023/09/30 05:24:53;;;;;;;13.90;9.90;;;;;;;;;;5054295;28;20279;-76
2023/09/30 05:27:20;;;;;;;15.43;10.27;;;;;;;;;;5037510;28;20187;-76
2023/09/30 05:29:46;;;;;;;16.17;10.97;;;;;;;;;;5037595;28;20271;-76
2023/09/30 05:32:14;;;;;;;16.37;10.43;;;;;;;;;;5021438;28;20239;-76
2023/09/30 05:34:40;;;;;;;18.13;10.43;;;;;;;;;;5037328;28;20187;-76
2023/09/30 05:37:06;;;;;;;14.57;10.17;;;;;;;;;;5038384;28;20180;-76
2023/09/30 05:39:32;;;;;;;16.97;10.60;;;;;;;;;;5057136;28;20194;-76
2023/09/30 05:42:01;;;;;;;16.80;10.90;;;;;;;;;;5054021;28;20223;-76
2023/09/30 05:44:27;;;;;;;16.23;11.00;;;;;;;;;;5033884;28;20185;-76
2023/09/30 05:46:54;;;;;;;17.20;11.10;;;;;;;;;;5017772;28;20275;-76
2023/09/30 05:49:20;;;;;;;16.30;10.27;;;;;;;;;;5052749;28;20188;-76
2023/09/30 05:51:46;;;;;;;18.50;11.07;;;;;;;;;;5036806;28;20257;-76
2023/09/30 05:54:12;;;;;;;18.30;10.50;;;;;;;;;;5039741;28;20282;-76
2023/09/30 05:56:38;;;;;;;15.50;11.07;;;;;;;;;;5031341;28;20187;-76
2023/09/30 05:59:06;;;;;;;17.33;10.53;;;;;;;;;;5036742;28;20234;-76
2023/09/30 06:01:32;;;;;;;17.60;11.27;;;;;;;;;;5033366;28;20176;-76
2023/09/30 06:03:59;;;;;;;17.50;11.07;;;;;;;;;;5020241;28;20275;-76
2023/09/30 06:06:26;;;;;;;16.97;10.77;;;;;;;;;;5040105;28;20259;-78
2023/09/30 06:08:53;;;;;;;15.10;10.73;;;;;;;;;;5020537;28;20241;-77
2023/09/30 06:11:19;;;;;;;18.23;10.93;;;;;;;;;;5036644;28;20249;-77
2023/09/30 06:13:46;;;;;;;13.47;10.07;;;;;;;;;;5036876;28;20265;-77
2023/09/30 06:16:12;;;;;;;14.77;10.33;;;;;;;;;;5048105;28;20206;-77
2023/09/30 06:18:38;;;;;;;13.37;11.00;;;;;;;;;;5036384;28;20184;-77
2023/09/30 06:21:04;;;;;;;19.57;11.40;;;;;;;;;;5020343;28;20211;-77
2023/09/30 06:23:31;;;;;;;16.23;11.30;;;;;;;;;;5038400;28;20213;-78
2023/09/30 06:25:58;;;;;;;17.93;11.30;;;;;;;;;;5036688;28;20251;-77
2023/09/30 06:28:26;;;;;;;17.00;11.77;;;;;;;;;;5036322;28;20203;-78
2023/09/30 06:30:55;;;;;;;17.97;11.30;;;;;;;;;;5036674;28;20249;-77
2023/09/30 06:33:21;;;;;;;16.17;11.60;;;;;;;;;;5036247;28;20180;-77
2023/09/30 06:35:50;;;;;;;16.50;12.13;;;;;;;;;;5020677;28;20190;-78
2023/09/30 06:38:20;;;;;;;19.33;11.73;;;;;;;;;;5036561;28;20236;-78
2023/09/30 06:40:48;;;;;;;20.63;12.00;;;;;;;;;;5054042;28;20194;-78
2023/09/30 06:43:18;;;;;;;14.73;11.07;;;;;;;;;;5037166;28;20240;-79
2023/09/30 06:45:46;;;;;;;16.47;12.40;;;;;;;;;;5036224;28;20183;-79
2023/09/30 06:48:13;;;;;;;16.30;11.87;;;;;;;;;;5036402;28;20180;-79
2023/09/30 06:50:40;;;;;;;18.93;11.83;;;;;;;;;;5036525;28;20211;-79
2023/09/30 06:53:06;;;;;;;15.47;11.97;;;;;;;;;;5054249;28;20198;-78
2023/09/30 06:55:33;;;;;;;18.30;11.97;;;;;;;;;;5020587;28;20176;-77
2023/09/30 06:57:59;;;;;;;16.13;11.87;;;;;;;;;;5036652;28;20180;-77
2023/09/30 07:00:25;;;;;;;14.57;12.37;;;;;;;;;;5033532;28;20242;-77
2023/09/30 07:02:51;;;;;;;15.13;11.60;;;;;;;;;;5042283;28;20187;-77
2023/09/30 07:05:17;;;;;;;15.37;11.97;;;;;;;;;;5019868;28;20192;-76
2023/09/30 07:07:43;;;;;;;22.47;15.53;;;;;;;;;;5040649;28;20188;-76
2023/09/30 07:10:10;;;;;;;20.10;16.07;;;;;;;;;;5040391;28;20188;-76
2023/09/30 07:12:37;;;;;;;26.70;17.93;;;;;;;;;;5023823;28;20183;-78
2023/09/30 07:15:04;;;;;;;20.80;16.93;;;;;;;;;;5040272;28;20215;-78
2023/09/30 07:17:30;;;;;;;26.17;18.23;;;;;;;;;;5040015;28;20176;-78
2023/09/30 07:19:56;;;;;;;23.30;16.13;;;;;;;;;;5040557;28;20176;-78
2023/09/30 07:22:22;;;;;;;24.53;17.43;;;;;;;;;;5020497;28;20184;-78
2023/09/30 07:24:48;;;;;;;26.20;17.63;;;;;;;;;;5042102;28;20226;-78
2023/09/30 07:27:14;;;;;;;21.10;17.13;;;;;;;;;;5031759;28;20250;-78
2023/09/30 07:29:40;;;;;;;24.50;18.23;;;;;;;;;;5023455;28;20192;-78
2023/09/30 07:32:08;;;;;;;22.40;16.90;;;;;;;;;;5039987;28;20265;-79
2023/09/30 07:34:34;;;;;;;24.07;17.63;;;;;;;;;;5037231;28;20203;-79
2023/09/30 07:37:00;;;;;;;30.77;18.43;;;;;;;;;;5038949;28;20188;-78
2023/09/30 07:39:26;;;;;;;22.17;17.43;;;;;;;;;;5037408;28;20176;-79
2023/09/30 07:41:52;;;;;;;26.33;18.03;;;;;;;;;;5036564;28;20225;-78
2023/09/30 07:44:18;;;;;;;25.20;17.47;;;;;;;;;;5019960;28;20187;-77
2023/09/30 07:46:44;;;;;;;22.10;15.57;;;;;;;;;;5037607;28;20185;-79
2023/09/30 07:49:11;;;;;;;23.73;17.17;;;;;;;;;;5035851;28;20184;-79
2023/09/30 07:51:39;;;;;;;24.60;16.73;;;;;;;;;;5036934;28;20200;-78
2023/09/30 07:54:05;;;;;;;25.30;16.93;;;;;;;;;;5036078;28;20199;-78
2023/09/30 07:56:31;;;;;;;27.13;16.53;;;;;;;;;;5019600;28;20267;-78
2023/09/30 07:58:57;;;;;;;24.40;17.30;;;;;;;;;;5035953;28;20177;-78
2023/09/30 08:01:23;;;;;;;22.10;15.70;;;;;;;;;;5020017;28;20187;-76
2023/09/30 08:03:50;;;;;;;21.43;15.90;;;;;;;;;;5037757;28;20196;-76
2023/09/30 08:06:16;;;;;;;21.10;16.10;;;;;;;;;;5035414;28;20188;-76
2023/09/30 08:08:42;;;;;;;24.50;16.80;;;;;;;;;;5019250;28;20284;-76
2023/09/30 08:11:08;;;;;;;25.93;16.50;;;;;;;;;;5019172;28;20303;-77
2023/09/30 08:13:34;;;;;;;26.07;16.57;;;;;;;;;;5019506;28;20268;-76
2023/09/30 08:16:00;;;;;;;24.47;16.23;;;;;;;;;;5036972;28;20177;-76
2023/09/30 08:18:27;;;;;;;27.33;16.87;;;;;;;;;;5018728;28;20250;-77
2023/09/30 08:20:53;;;;;;;25.40;14.77;;;;;;;;;;5036757;28;20224;-77
2023/09/30 08:23:19;;;;;;;23.87;14.53;;;;;;;;;;5019411;28;20285;-77
2023/09/30 08:25:45;;;;;;;22.83;14.50;;;;;;;;;;5018941;28;20266;-77
2023/09/30 08:28:11;;;;;;;21.47;14.20;;;;;;;;;;5018810;28;20184;-77
2023/09/30 08:30:37;;;;;;;22.97;14.20;;;;;;;;;;5018515;28;20350;-77
2023/09/30 08:33:03;;;;;;;19.87;12.93;;;;;;;;;;5036408;28;20173;-78
2023/09/30 08:35:31;;;;;;;19.87;12.37;;;;;;;;;;5018047;28;20195;-76
2023/09/30 08:37:58;;;;;;;23.57;13.87;;;;;;;;;;5036773;28;20260;-77
2023/09/30 08:40:24;;;;;;;18.30;12.68;;;;;;;;;;5018815;28;20465;-76
2023/09/30 08:42:52;;;;;;;19.40;11.83;;;;;;;;;;5018464;28;20232;-76
2023/09/30 08:45:19;;;;;;;17.23;11.03;;;;;;;;;;5036169;28;20176;-76
2023/09/30 08:47:50;;;;;;;17.55;11.65;;;;;;;;;;5018705;28;20455;-76
2023/09/30 08:50:16;;;;;;;20.45;12.40;;;;;;;;;;5035288;28;20408;-76
2023/09/30 08:52:44;;;;;;;17.13;10.50;;;;;;;;;;5043453;28;20176;-77
2023/09/30 08:55:10;;;;;;;19.35;11.20;;;;;;;;;;5056328;28;20404;-77
2023/09/30 08:57:40;;;;;;;18.00;11.43;;;;;;;;;;5038346;28;20176;-77
2023/09/30 09:00:07;;;;;;;19.30;10.97;;;;;;;;;;5038118;28;20176;-77
2023/09/30 09:02:36;;;;;;;16.63;10.47;;;;;;;;;;5038114;28;20190;-77
2023/09/30 09:05:02;;;;;;;15.67;10.33;;;;;;;;;;5038149;28;20180;-77
2023/09/30 09:07:30;;;;;;;15.73;10.43;;;;;;;;;;5038343;28;20180;-77
2023/09/30 09:10:08;;;;;;;21.53;10.53;;;;;;;;;;5034708;28;20196;-76
2023/09/30 09:12:35;;;;;;;19.57;10.33;;;;;;;;;;5017834;28;20211;-77
2023/09/30 09:15:02;;;;;;;15.60;9.83;;;;;;;;;;5018131;28;20263;-77
2023/09/30 09:17:42;;;;;;;17.87;9.80;;;;;;;;;;5017943;28;20184;-77
2023/09/30 09:20:13;;;;;;;15.73;9.97;;;;;;;;;;5018027;28;20203;-77
2023/09/30 09:22:43;;;;;;;17.40;10.07;;;;;;;;;;5035733;28;20207;-77
2023/09/30 09:25:09;;;;;;;15.70;9.80;;;;;;;;;;5017987;28;20176;-81
2023/09/30 09:27:38;;;;;;;18.90;9.53;;;;;;;;;;5018004;28;20176;-81
2023/09/30 09:30:23;;;;;;;19.63;10.23;;;;;;;;;;5021338;28;20255;-79
2023/09/30 09:32:55;;;;;;;14.87;9.53;;;;;;;;;;5038150;28;20217;-80
2023/09/30 09:35:22;;;;;;;16.80;9.57;;;;;;;;;;5037634;28;20207;-80
2023/09/30 09:38:15;;;;;;;16.90;10.83;;;;;;;;;;5037402;28;20204;-80
2023/09/30 09:40:41;;;;;;;15.47;9.33;;;;;;;;;;5034761;28;20183;-80
2023/09/30 09:43:07;;;;;;;14.80;9.83;;;;;;;;;;5037797;28;20232;-78
2023/09/30 09:45:35;;;;;;;19.27;9.93;;;;;;;;;;5055083;28;20183;-78
2023/09/30 09:48:01;;;;;;;18.20;10.45;;;;;;;;;;5033060;28;20413;-78
2023/09/30 09:50:27;;;;;;;15.13;9.25;;;;;;;;;;5017316;28;20406;-78
2023/09/30 09:52:59;;;;;;;16.20;9.35;;;;;;;;;;5017296;28;20268;-78
2023/09/30 09:55:25;;;;;;;16.30;9.43;;;;;;;;;;5017235;28;20173;-78
2023/09/30 09:57:51;;;;;;;12.25;8.50;;;;;;;;;;5017556;28;20210;-80
2023/09/30 10:00:25;;;;;;;17.85;8.45;;;;;;;;;;5035102;28;20177;-80
2023/09/30 10:02:51;;;;;;;14.75;8.77;;;;;;;;;;5017201;28;20199;-79
2023/09/30 10:05:18;;;;;;;15.88;9.82;;;;;;;;;;5023888;28;20415;-78
2023/09/30 10:07:50;;;;;;;15.60;8.82;;;;;;;;;;5037321;28;20180;-78
2023/09/30 10:10:17;;;;;;;16.05;8.48;;;;;;;;;;5037545;28;20198;-78
2023/09/30 10:12:43;;;;;;;14.00;8.02;;;;;;;;;;5037271;28;20182;-78
2023/09/30 10:15:25;;;;;;;14.63;7.57;;;;;;;;;;5021271;28;20271;-77
2023/09/30 10:18:00;;;;;;;12.13;7.40;;;;;;;;;;5037030;28;20168;-77
2023/09/30 10:20:30;;;;;;;13.20;7.40;;;;;;;;;;5037187;28;20171;-77
2023/09/30 10:23:15;;;;;;;12.27;7.35;;;;;;;;;;5036586;28;20205;-77
2023/09/30 10:25:46;;;;;;;14.95;7.88;;;;;;;;;;5036973;28;20176;-77
2023/09/30 10:28:31;;;;;;;13.70;7.72;;;;;;;;;;5021202;28;20180;-77
2023/09/30 10:31:18;;;;;;;12.50;7.32;;;;;;;;;;5036843;28;20235;-77
2023/09/30 10:34:14;;;;;;;13.70;8.20;;;;;;;;;;5054139;28;20406;-77
2023/09/30 10:36:41;;;;;;;13.07;8.18;;;;;;;;;;5037403;28;20443;-78
2023/09/30 10:39:14;;;;;;;13.50;8.15;;;;;;;;;;5054034;28;20468;-77
2023/09/30 10:41:45;;;;;;;16.65;8.57;;;;;;;;;;5034319;28;20421;-76
2023/09/30 10:44:26;;;;;;;12.27;8.20;;;;;;;;;;5021150;28;20200;-77
2023/09/30 10:46:52;;;;;;;15.98;8.32;;;;;;;;;;5020690;28;20417;-77
2023/09/30 10:49:24;;;;;;;11.52;7.45;;;;;;;;;;5020683;28;20432;-81
2023/09/30 10:51:54;;;;;;;15.75;8.10;;;;;;;;;;5037861;28;20465;-80
2023/09/30 10:54:47;;;;;;;12.57;6.78;;;;;;;;;;5023685;28;20417;-80
2023/09/30 10:57:13;;;;;;;13.43;7.53;;;;;;;;;;5033783;28;20409;-81
2023/09/30 10:59:39;;;;;;;14.63;6.95;;;;;;;;;;5004642;28;20434;-81
2023/09/30 11:02:18;;;;;;;12.10;5.78;;;;;;;;;;5004278;28;20180;-81
2023/09/30 11:04:47;;;;;;;12.43;5.50;;;;;;;;;;5038637;28;20192;-81
2023/09/30 11:07:17;;;;;;;12.95;6.10;;;;;;;;;;5020730;28;20415;-81
2023/09/30 11:09:43;;;;;;;12.75;6.03;;;;;;;;;;5020472;28;20444;-81
2023/09/30 11:12:15;;;;;;;11.73;5.50;;;;;;;;;;5011802;28;20430;-80
2023/09/30 11:14:41;;;;;;;9.30;5.13;;;;;;;;;;5069411;28;20199;-80
2023/09/30 11:17:07;;;;;;;11.68;4.85;;;;;;;;;;5040465;28;20187;-80
2023/09/30 11:19:37;;;;;;;13.05;5.20;;;;;;;;;;5039811;28;20481;-80
2023/09/30 11:22:05;;;;;;;10.13;4.38;;;;;;;;;;5020921;28;20215;-79
2023/09/30 11:24:33;;;;;;;11.38;5.15;;;;;;;;;;5039508;28;20176;-79
2023/09/30 11:26:59;;;;;;;8.93;4.28;;;;;;;;;;5024117;28;20182;-79
2023/09/30 11:29:26;;;;;;;9.55;3.90;;;;;;;;;;5039685;28;20180;-79
2023/09/30 11:31:53;;;;;;;8.80;4.32;;;;;;;;;;5039668;28;20295;-79
2023/09/30 11:34:19;;;;;;;11.43;4.65;;;;;;;;;;5039297;28;20404;-79
2023/09/30 11:36:52;;;;;;;11.23;4.90;;;;;;;;;;5023077;28;20195;-79
2023/09/30 11:39:27;;;;;;;10.55;4.53;;;;;;;;;;5039687;28;20179;-80
2023/09/30 11:41:55;;;;;;;9.95;4.80;;;;;;;;;;5037498;28;20435;-80
2023/09/30 11:44:21;;;;;;;11.02;4.68;;;;;;;;;;5056903;28;20420;-80
2023/09/30 11:47:02;;;;;;;7.70;4.13;;;;;;;;;;5039682;28;20188;-79
2023/09/30 11:49:35;;;;;;;10.13;4.00;;;;;;;;;;5040027;28;20259;-80
2023/09/30 11:52:03;;;;;;;7.10;3.70;;;;;;;;;;5022765;28;20208;-80
2023/09/30 11:54:43;;;;;;;12.07;4.00;;;;;;;;;;5038727;28;20210;-80
2023/09/30 11:57:15;;;;;;;9.90;4.18;;;;;;;;;;5039374;28;20486;-80
2023/09/30 11:59:41;;;;;;;8.68;4.22;;;;;;;;;;5038784;28;20412;-80
2023/09/30 12:02:08;;;;;;;12.52;4.93;;;;;;;;;;5038806;28;20404;-80
2023/09/30 12:04:35;;;;;;;12.27;4.63;;;;;;;;;;5022246;28;20412;-80
2023/09/30 12:07:01;;;;;;;11.07;4.30;;;;;;;;;;5055954;28;20404;-80
2023/09/30 12:09:27;;;;;;;10.75;4.60;;;;;;;;;;5038756;28;20404;-81
2023/09/30 12:11:54;;;;;;;9.38;4.30;;;;;;;;;;5038630;28;20431;-77
2023/09/30 12:14:23;;;;;;;10.35;4.30;;;;;;;;;;5055892;28;20418;-77
2023/09/30 12:16:50;;;;;;;9.13;4.25;;;;;;;;;;5021996;28;20411;-77
2023/09/30 12:19:20;;;;;;;8.55;3.95;;;;;;;;;;5022804;28;20404;-77
2023/09/30 12:21:47;;;;;;;8.07;4.05;;;;;;;;;;5019212;28;20176;-77
2023/09/30 12:24:19;;;;;;;11.25;3.95;;;;;;;;;;5002965;28;20188;-77
2023/09/30 12:26:48;;;;;;;9.95;3.90;;;;;;;;;;5019862;28;20183;-77
2023/09/30 12:29:17;;;;;;;10.98;4.13;;;;;;;;;;5019692;28;20259;-78
2023/09/30 12:31:44;;;;;;;7.80;3.55;;;;;;;;;;5019599;28;20224;-79
2023/09/30 12:34:10;;;;;;;10.10;4.10;;;;;;;;;;5002736;28;20418;-79
2023/09/30 12:36:36;;;;;;;9.52;4.28;;;;;;;;;;5019437;28;20480;-78
2023/09/30 12:39:10;;;;;;;11.05;4.57;;;;;;;;;;5002456;28;20418;-78
2023/09/30 12:41:36;;;;;;;9.60;4.20;;;;;;;;;;5003773;28;20483;-78
2023/09/30 12:44:02;;;;;;;12.18;4.40;;;;;;;;;;5013507;28;20440;-78
2023/09/30 12:46:29;;;;;;;9.68;4.47;;;;;;;;;;5037817;28;20516;-79
2023/09/30 12:48:55;;;;;;;9.85;4.32;;;;;;;;;;5021347;28;20554;-79
2023/09/30 12:51:21;;;;;;;10.52;4.35;;;;;;;;;;5037979;28;20531;-79
2023/09/30 12:53:47;;;;;;;10.60;4.40;;;;;;;;;;5021763;28;20416;-79
2023/09/30 12:56:13;;;;;;;10.77;4.45;;;;;;;;;;5027462;22;20453;-77
2023/09/30 12:58:39;;;;;;;10.63;4.40;;;;;;;;;;5020164;28;20459;-77
2023/09/30 13:01:06;;;;;;;11.68;4.78;;;;;;;;;;5026871;28;20420;-80
2023/09/30 13:03:32;;;;;;;10.50;4.55;;;;;;;;;;5054483;28;20400;-80
2023/09/30 13:05:58;;;;;;;9.77;4.60;;;;;;;;;;5020853;28;20426;-80
2023/09/30 13:08:24;;;;;;;11.52;4.63;;;;;;;;;;5019983;28;20400;-80
2023/09/30 13:10:52;;;;;;;9.85;4.80;;;;;;;;;;5028618;28;20431;-81
2023/09/30 13:13:18;;;;;;;10.60;5.00;;;;;;;;;;5036732;28;20415;-80
2023/09/30 13:15:44;;;;;;;9.73;4.30;;;;;;;;;;5022064;28;20428;-80
2023/09/30 13:18:10;;;;;;;11.63;4.80;;;;;;;;;;5017657;28;20451;-76
2023/09/30 13:20:36;;;;;;;11.18;4.55;;;;;;;;;;5053451;28;20427;-76
2023/09/30 13:23:03;;;;;;;10.65;4.65;;;;;;;;;;5044010;28;20415;-77
2023/09/30 13:25:29;;;;;;;9.82;4.18;;;;;;;;;;5035556;28;20427;-77
2023/09/30 13:27:55;;;;;;;10.50;4.18;;;;;;;;;;5020330;28;20436;-76
2023/09/30 13:30:22;;;;;;;8.25;3.88;;;;;;;;;;5036570;28;20408;-77
2023/09/30 13:32:48;;;;;;;9.75;4.28;;;;;;;;;;5020181;28;20408;-77
2023/09/30 13:35:14;;;;;;;10.00;4.10;;;;;;;;;;5054511;28;20445;-78
2023/09/30 13:37:40;;;;;;;10.38;4.60;;;;;;;;;;5036580;28;20412;-77
2023/09/30 13:40:11;;;;;;;11.02;4.70;;;;;;;;;;5020990;28;20188;-79
2023/09/30 13:42:37;;;;;;;13.13;4.90;;;;;;;;;;5037065;28;20500;-78
2023/09/30 13:45:04;;;;;;;10.88;4.65;;;;;;;;;;5040134;28;20470;-78
2023/09/30 13:47:30;;;;;;;9.07;4.90;;;;;;;;;;5032535;28;20425;-76
2023/09/30 13:49:56;;;;;;;10.45;5.28;;;;;;;;;;5054398;28;20404;-77
2023/09/30 13:52:22;;;;;;;9.02;5.00;;;;;;;;;;5019741;28;20466;-79
2023/09/30 13:54:48;;;;;;;11.73;4.82;;;;;;;;;;5035357;28;20412;-80
2023/09/30 13:57:14;;;;;;;10.30;4.30;;;;;;;;;;5037341;28;20354;-78
2023/09/30 13:59:41;;;;;;;11.20;4.82;;;;;;;;;;5025023;28;20414;-78
2023/09/30 14:02:07;;;;;;;10.90;5.47;;;;;;;;;;5072429;28;20406;-78
2023/09/30 14:04:36;;;;;;;10.75;4.53;;;;;;;;;;5042354;28;20253;-78
2023/09/30 14:07:02;;;;;;;10.70;5.30;;;;;;;;;;5021222;28;20507;-78
2023/09/30 14:09:29;;;;;;;12.15;5.07;;;;;;;;;;5020913;28;20447;-77
2023/09/30 14:11:56;;;;;;;10.75;5.22;;;;;;;;;;5053711;28;20522;-77
2023/09/30 14:14:22;;;;;;;8.88;4.57;;;;;;;;;;5053090;28;20416;-77
2023/09/30 14:16:48;;;;;;;10.90;5.97;;;;;;;;;;5035274;28;20408;-77
2023/09/30 14:19:14;;;;;;;11.43;5.30;;;;;;;;;;5035242;28;20445;-76
2023/09/30 14:21:40;;;;;;;12.87;5.67;;;;;;;;;;5054148;28;20219;-76
2023/09/30 14:24:07;;;;;;;12.80;5.85;;;;;;;;;;5036385;28;20411;-77
2023/09/30 14:26:33;;;;;;;12.07;5.57;;;;;;;;;;5037249;28;20182;-80
2023/09/30 14:28:59;;;;;;;10.18;5.47;;;;;;;;;;5036411;28;20423;-78